Time;durP1;ratioP1;P1;durP2;ratioP2;P2;SDS_P1;SDS_P2;PMS_P1;PMS_P2;Temp;Humidity;BMP_temperature;BMP_pressure;BME280_temperature;BME280_humidity;BME280_pressure;Samples;Min_cycle;Max_cycle;Signal;HPM_P1;HPM_P2
2022/05/06 00:01:44;;;;;;;5.35;2.95;;;;;;;10.57;78.27;101193.16;4974006;28;20106;-76
2022/05/06 00:04:10;;;;;;;6.93;3.20;;;;;;;10.82;78.86;101268.41;4976677;28;20029;-77
2022/05/06 00:06:36;;;;;;;7.32;3.20;;;;;;;10.79;79.26;101263.09;4984862;28;20059;-77
2022/05/06 00:09:03;;;;;;;5.50;3.03;;;;;;;10.86;78.97;101271.16;4993782;28;20061;-77
2022/05/06 00:11:29;;;;;;;6.07;3.10;;;;;;;10.58;79.08;101215.53;4993689;28;20038;-77
2022/05/06 00:13:54;;;;;;;13.02;3.70;;;;;;;10.91;78.90;101273.13;4993446;28;20552;-77
2022/05/06 00:16:20;;;;;;;6.47;2.78;;;;;;;10.69;79.69;101242.78;4993191;28;20045;-77
2022/05/06 00:18:46;;;;;;;8.65;3.30;;;;;;;10.61;81.04;101223.47;4993719;28;20469;-77
2022/05/06 00:21:11;;;;;;;6.40;3.03;;;;;;;10.78;82.47;101275.91;4958747;28;20100;-77
2022/05/06 00:23:37;;;;;;;7.68;3.30;;;;;;;10.82;82.62;101272.69;4993102;28;20114;-76
2022/05/06 00:26:03;;;;;;;7.05;2.95;;;;;;;10.63;82.83;101237.31;4993587;28;20034;-77
2022/05/06 00:28:48;;;;;;;5.18;3.17;;;;;;;11.02;81.96;101265.03;4993743;28;20023;-76
2022/05/06 00:31:14;;;;;;;4.75;2.85;;;;;;;11.20;79.95;101267.59;4952056;29;20113;-77
2022/05/06 00:33:39;;;;;;;7.15;2.60;;;;;;;11.18;79.50;101257.19;4952152;29;20043;-78
2022/05/06 00:36:05;;;;;;;5.38;2.72;;;;;;;11.36;79.01;101262.31;4952107;29;20260;-77
2022/05/06 00:38:31;;;;;;;6.65;3.08;;;;;;;11.34;78.19;101256.19;4952178;29;20122;-79
2022/05/06 00:40:57;;;;;;;7.85;2.90;;;;;;;11.42;78.17;101265.19;4951974;29;20539;-79
2022/05/06 00:43:27;;;;;;;12.00;3.60;;;;;;;11.27;78.50;101267.94;4951809;29;20059;-77
2022/05/06 00:45:56;;;;;;;6.07;2.90;;;;;;;11.02;78.90;101250.41;4936265;29;20086;-78
2022/05/06 00:48:26;;;;;;;4.97;2.92;;;;;;;10.82;79.02;101223.59;4951529;29;20568;-77
2022/05/06 00:50:51;;;;;;;6.40;2.92;;;;;;;11.15;78.46;101267.34;4936223;29;20046;-77
2022/05/06 00:53:17;;;;;;;10.82;3.35;;;;;;;10.89;78.04;101212.75;4947222;28;20039;-77
2022/05/06 00:55:43;;;;;;;10.02;3.53;;;;;;;11.02;77.92;101221.97;4951662;29;20066;-72
2022/05/06 00:58:09;;;;;;;8.90;3.20;;;;;;;11.33;77.39;101251.84;4951548;29;20043;-77
2022/05/06 01:00:35;;;;;;;9.18;3.20;;;;;;;11.43;77.45;101259.19;4951902;29;20035;-77
2022/05/06 01:03:00;;;;;;;5.43;3.00;;;;;;;11.14;77.72;101207.03;4985241;28;20121;-77
2022/05/06 01:05:26;;;;;;;8.40;3.10;;;;;;;11.17;78.37;101227.84;4992862;28;20126;-77
2022/05/06 01:07:53;;;;;;;10.38;3.10;;;;;;;10.84;78.63;101201.31;4975359;28;20065;-77
2022/05/06 01:10:20;;;;;;;5.78;2.78;;;;;;;10.69;80.58;101245.34;4992663;28;20093;-77
2022/05/06 01:12:46;;;;;;;7.35;2.90;;;;;;;10.72;80.00;101273.94;4993230;28;20030;-76
2022/05/06 01:15:25;;;;;;;5.22;2.90;;;;;;;10.49;80.07;101272.78;4992710;28;20054;-77
2022/05/06 01:20:25;;;;;;;10.20;3.35;;;;;;;9.97;80.17;101240.00;4990208;28;20050;-74
2022/05/06 01:22:56;;;;;;;5.07;2.88;;;;;;;10.03;80.39;101266.13;4991404;28;20038;-76
2022/05/06 01:25:21;;;;;;;6.28;3.38;;;;;;;10.08;80.75;101258.63;4981530;28;20040;-76
2022/05/06 01:28:12;;;;;;;7.25;3.10;;;;;;;9.94;80.90;101273.38;4992850;28;20027;-75
2022/05/06 01:30:48;;;;;;;7.28;3.10;;;;;;;9.82;82.14;101281.34;4992889;28;20421;-77
2022/05/06 01:33:18;;;;;;;7.80;3.25;;;;;;;9.53;82.85;101242.91;4992969;28;20102;-76
2022/05/06 01:35:49;;;;;;;6.88;3.67;;;;;;;9.74;82.86;101268.06;4992652;28;20030;-75
2022/05/06 01:38:36;;;;;;;7.10;3.47;;;;;;;9.90;82.19;101261.16;4992705;28;20413;-77
2022/05/06 01:41:13;;;;;;;6.32;3.05;;;;;;;9.94;81.91;101252.75;4992830;28;20061;-76
2022/05/06 01:43:43;;;;;;;5.63;3.10;;;;;;;9.84;83.75;101259.13;4992731;28;20046;-72
2022/05/06 01:46:14;;;;;;;9.98;3.60;;;;;;;9.65;85.22;101241.78;4992539;28;20060;-75
2022/05/06 01:48:42;;;;;;;7.60;3.47;;;;;;;9.12;88.79;101250.97;4992569;28;20089;-74
2022/05/06 01:51:10;;;;;;;7.55;3.65;;;;;;;8.75;89.92;101236.91;4992287;28;20121;-76
2022/05/06 01:53:36;;;;;;;7.53;3.88;;;;;;;8.66;89.46;101233.81;4992354;28;20030;-76
2022/05/06 01:56:03;;;;;;;7.03;3.47;;;;;;;8.97;88.77;101253.56;4992332;28;20029;-73
2022/05/06 01:58:28;;;;;;;9.88;4.15;;;;;;;8.96;88.00;101208.00;4974898;28;20030;-73
2022/05/06 02:00:54;;;;;;;5.97;3.63;;;;;;;9.36;86.60;101239.41;4992375;28;20030;-76
2022/05/06 02:06:04;;;;;;;7.32;3.88;;;;;;;9.18;88.88;101257.34;4991559;28;20038;-73
2022/05/06 02:08:29;;;;;;;6.55;4.13;;;;;;;8.92;90.17;101255.88;4992178;28;20034;-73
2022/05/06 02:10:54;;;;;;;7.32;3.97;;;;;;;8.85;89.94;101239.19;4992208;28;20514;-76
2022/05/06 02:13:20;;;;;;;6.82;3.95;;;;;;;8.61;90.65;101263.53;4992261;28;20053;-75
2022/05/06 02:15:45;;;;;;;6.80;3.70;;;;;;;8.45;90.83;101241.16;4991881;28;20031;-75
2022/05/06 02:18:11;;;;;;;7.18;3.88;;;;;;;8.66;89.99;101251.81;4991902;28;20402;-76
2022/05/06 02:20:37;;;;;;;9.68;3.88;;;;;;;8.69;88.76;101214.28;4991861;28;20030;-75
2022/05/06 02:23:03;;;;;;;8.23;4.50;;;;;;;8.78;87.77;101195.00;4992363;28;20026;-75
2022/05/06 02:25:29;;;;;;;7.75;3.90;;;;;;;9.18;86.40;101239.31;4991925;28;20460;-75
2022/05/06 02:27:54;;;;;;;8.38;3.80;;;;;;;9.19;85.62;101235.91;4992037;28;20042;-75
2022/05/06 02:33:12;;;;;;;7.18;4.00;;;;;;;9.22;85.36;101248.97;4986041;28;20049;-75
2022/05/06 02:35:38;;;;;;;9.43;3.47;;;;;;;9.27;85.38;101249.25;4991558;28;20093;-75
2022/05/06 02:38:08;;;;;;;7.90;3.97;;;;;;;9.19;85.96;101251.38;4991323;28;20031;-74
2022/05/06 02:40:35;;;;;;;11.90;4.68;;;;;;;9.27;86.17;101240.59;4991492;28;20038;-74
2022/05/06 02:43:04;;;;;;;9.77;4.28;;;;;;;9.16;85.94;101246.06;4973872;28;20097;-74
2022/05/06 02:45:30;;;;;;;9.35;4.07;;;;;;;8.78;87.71;101244.81;4972377;28;20065;-74
2022/05/06 02:47:57;;;;;;;10.30;4.28;;;;;;;8.45;88.76;101205.13;4972040;28;20038;-75
2022/05/06 02:50:23;;;;;;;9.40;4.20;;;;;;;8.82;88.34;101243.28;4969084;28;20031;-73
2022/05/06 02:52:48;;;;;;;5.63;3.58;;;;;;;8.95;88.27;101242.28;4987510;28;20456;-73
2022/05/06 02:55:14;;;;;;;8.85;4.57;;;;;;;8.79;86.53;101192.50;4991341;28;20557;-72
2022/05/06 02:57:40;;;;;;;8.77;3.65;;;;;;;9.29;85.67;101244.16;4991186;28;20029;-73
2022/05/06 03:00:06;;;;;;;5.07;3.45;;;;;;;9.43;84.82;101243.19;4991348;28;20032;-73
2022/05/06 03:02:32;;;;;;;7.93;4.13;;;;;;;9.28;84.42;101214.03;4987793;28;20472;-74
2022/05/06 03:04:57;;;;;;;23.83;4.30;;;;;;;9.53;83.60;101258.38;4978713;28;20030;-74
2022/05/06 03:07:23;;;;;;;6.78;4.03;;;;;;;8.86;85.77;101240.97;4971481;28;20084;-73
2022/05/06 03:09:49;;;;;;;7.15;3.47;;;;;;;8.56;87.54;101227.25;4981801;28;20039;-74
2022/05/06 03:12:17;;;;;;;8.98;3.95;;;;;;;8.45;88.46;101277.16;4971382;28;20031;-73
2022/05/06 03:14:43;;;;;;;7.97;3.63;;;;;;;8.21;89.75;101278.41;4971388;28;20031;-74
2022/05/06 03:17:09;;;;;;;7.30;3.42;;;;;;;8.24;89.23;101273.44;4972590;28;20023;-73
2022/05/06 03:19:34;;;;;;;8.43;3.90;;;;;;;8.24;89.24;101277.69;4975512;28;20066;-74
2022/05/06 03:22:00;;;;;;;7.45;3.63;;;;;;;8.19;88.86;101279.13;4975224;28;20038;-74
2022/05/06 03:24:27;;;;;;;6.43;3.20;;;;;;;8.23;89.12;101286.22;4975205;28;20081;-74
2022/05/06 03:26:53;;;;;;;8.65;3.22;;;;;;;8.38;88.23;101278.50;4975276;28;20046;-73
2022/05/06 03:29:19;;;;;;;6.20;3.28;;;;;;;8.42;87.61;101281.38;4975329;28;20039;-74
2022/05/06 03:31:44;;;;;;;6.03;3.28;;;;;;;8.33;87.42;101267.94;4975073;28;20054;-73
2022/05/06 03:34:10;;;;;;;6.78;3.60;;;;;;;8.48;87.04;101273.13;4975239;28;20046;-75
2022/05/06 03:36:35;;;;;;;6.32;3.20;;;;;;;8.41;85.52;101278.66;4974988;28;20061;-73
2022/05/06 03:39:03;;;;;;;6.32;3.75;;;;;;;8.45;85.32;101266.88;4974919;28;20031;-73
2022/05/06 03:41:29;;;;;;;8.30;3.70;;;;;;;8.67;84.78;101280.25;4974735;28;20042;-74
2022/05/06 03:43:54;;;;;;;6.85;3.47;;;;;;;8.85;84.22;101290.69;4975110;28;20046;-73
2022/05/06 03:46:20;;;;;;;6.63;3.60;;;;;;;8.92;84.27;101271.31;4974805;28;20504;-73
2022/05/06 03:48:46;;;;;;;6.05;3.58;;;;;;;8.85;83.55;101239.19;4973624;28;20030;-74
2022/05/06 03:51:20;;;;;;;7.68;3.40;;;;;;;9.05;83.29;101284.09;4973532;28;20077;-74
2022/05/06 03:53:54;;;;;;;7.22;3.47;;;;;;;9.12;83.56;101289.59;4957406;28;20023;-73
2022/05/06 03:56:24;;;;;;;8.18;3.45;;;;;;;9.15;83.96;101295.81;4973449;28;20027;-73
2022/05/06 03:58:50;;;;;;;9.40;3.60;;;;;;;9.20;83.66;101298.66;4974066;28;20034;-73
2022/05/06 04:01:17;;;;;;;8.40;4.18;;;;;;;9.12;84.05;101298.22;4973588;28;20026;-74
2022/05/06 04:03:43;;;;;;;10.10;6.18;;;;;;;8.96;84.35;101246.63;4974765;28;20469;-73
2022/05/06 04:06:08;;;;;;;12.70;6.20;;;;;;;9.14;84.83;101280.28;4974305;28;20027;-73
2022/05/06 04:08:34;;;;;;;11.95;6.00;;;;;;;9.38;84.17;101286.78;4974400;28;20039;-73
2022/05/06 04:11:00;;;;;;;33.90;18.65;;;;;;;9.23;84.67;101286.84;4974790;28;20053;-73
2022/05/06 04:13:27;;;;;;;11.80;5.88;;;;;;;9.25;85.64;101299.78;4974447;28;20078;-72
2022/05/06 04:15:52;;;;;;;7.80;4.50;;;;;;;9.11;87.11;101290.38;4974412;28;20030;-73
2022/05/06 04:18:18;;;;;;;12.52;4.05;;;;;;;9.12;88.22;101285.34;4974305;28;20038;-73
2022/05/06 04:23:32;;;;;;;9.65;3.92;;;;;;;9.23;88.87;101297.13;4974446;28;20512;-73
2022/05/06 04:26:02;;;;;;;10.68;4.45;;;;;;;9.21;88.96;101284.97;4974098;28;20484;-73
2022/05/06 04:28:29;;;;;;;10.80;4.07;;;;;;;9.39;88.55;101295.41;4975655;28;20031;-73
2022/05/06 04:30:56;;;;;;;8.68;4.15;;;;;;;9.26;90.87;101257.78;4972894;28;20042;-73
2022/05/06 04:33:25;;;;;;;8.48;4.07;;;;;;;9.48;92.89;101295.91;4989633;28;20022;-71
2022/05/06 04:35:51;;;;;;;6.15;3.70;;;;;;;9.12;94.71;101257.00;4991646;28;20038;-73
2022/05/06 04:38:16;;;;;;;6.75;4.32;;;;;;;9.34;95.46;101302.88;4992855;28;20075;-73
2022/05/06 04:40:42;;;;;;;8.85;4.45;;;;;;;9.40;94.99;101297.19;4993091;28;20088;-73
2022/05/06 04:43:08;;;;;;;8.85;4.45;;;;;;;9.51;93.57;101308.09;4992846;28;20030;-73
2022/05/06 04:45:41;;;;;;;12.20;4.78;;;;;;;9.67;93.46;101318.41;4992923;28;20049;-73
2022/05/06 04:48:08;;;;;;;8.75;4.15;;;;;;;9.81;92.24;101310.56;4992364;28;20081;-72
2022/05/06 04:50:36;;;;;;;8.30;4.65;;;;;;;9.81;91.28;101298.53;4992991;28;20038;-73
2022/05/06 04:53:02;;;;;;;8.52;3.95;;;;;;;9.89;91.64;101309.25;4958845;28;20104;-74
2022/05/06 04:55:28;;;;;;;17.55;4.70;;;;;;;9.66;94.18;101311.47;4992460;28;20026;-73
2022/05/06 04:57:53;;;;;;;12.38;4.35;;;;;;;9.42;95.24;101303.31;4992734;28;20034;-73
2022/05/06 05:00:22;;;;;;;13.27;4.60;;;;;;;9.52;95.05;101299.53;4992520;28;20037;-73
2022/05/06 05:02:48;;;;;;;11.88;4.85;;;;;;;9.71;94.43;101310.03;4992310;28;20057;-73
2022/05/06 05:05:14;;;;;;;10.13;4.55;;;;;;;9.67;95.00;101302.03;4992360;28;20044;-73
2022/05/06 05:07:40;;;;;;;9.75;5.30;;;;;;;9.90;95.01;101311.03;4992397;28;20058;-73
2022/05/06 05:10:26;;;;;;;10.10;5.40;;;;;;;10.09;95.03;101317.16;4988898;28;20040;-73
2022/05/06 05:12:52;;;;;;;16.02;5.45;;;;;;;10.19;92.64;101311.66;4929357;29;20058;-75
2022/05/06 05:15:17;;;;;;;9.18;5.22;;;;;;;10.31;88.64;101322.63;4921854;29;20048;-74
2022/05/06 05:17:44;;;;;;;9.75;5.03;;;;;;;10.54;86.37;101316.91;4931162;29;20040;-74
2022/05/06 05:20:10;;;;;;;11.65;4.43;;;;;;;10.77;85.04;101323.25;4932264;29;20052;-74
2022/05/06 05:22:36;;;;;;;8.45;4.90;;;;;;;10.94;83.96;101331.81;4932362;29;20479;-74
2022/05/06 05:25:02;;;;;;;6.65;3.83;;;;;;;11.02;82.46;101302.06;4932246;29;20128;-74
2022/05/06 05:27:27;;;;;;;8.55;4.03;;;;;;;11.25;82.34;101320.38;4932255;29;20043;-74
2022/05/06 05:29:53;;;;;;;9.15;4.20;;;;;;;11.27;83.67;101300.66;4932100;29;20050;-74
2022/05/06 05:32:18;;;;;;;11.85;5.15;;;;;;;11.52;83.48;101310.44;4932224;29;20163;-73
2022/05/06 05:34:44;;;;;;;9.45;4.35;;;;;;;11.39;82.59;101284.81;4932249;29;20135;-74
2022/05/06 05:37:10;;;;;;;16.52;4.22;;;;;;;11.71;80.82;101312.19;4932088;29;20042;-74
2022/05/06 05:39:36;;;;;;;7.00;3.78;;;;;;;11.70;81.61;101341.47;4931956;29;20051;-73
2022/05/06 05:42:03;;;;;;;7.30;4.05;;;;;;;11.73;82.75;101340.72;4930952;29;20049;-73
2022/05/06 05:49:57;;;;;;;5.78;3.78;;;;;;;12.36;79.34;101346.19;4972656;28;20080;-74
2022/05/06 05:52:23;;;;;;;10.18;4.28;;;;;;;12.41;79.36;101336.91;4972765;28;20035;-73
2022/05/06 05:54:48;;;;;;;10.27;5.28;;;;;;;12.63;79.23;101345.56;4972768;28;20161;-74
2022/05/06 05:57:14;;;;;;;6.40;4.00;;;;;;;12.73;78.77;101328.72;4972697;28;20481;-74
2022/05/06 05:59:41;;;;;;;7.38;4.22;;;;;;;12.81;81.11;101322.16;4972907;28;20030;-74
2022/05/06 06:02:10;;;;;;;9.85;4.10;;;;;;;12.95;79.03;101331.38;4987492;28;20075;-74
2022/05/06 06:04:36;;;;;;;;;;;;;;;13.05;77.66;101324.88;4972810;28;20473;-75
2022/05/06 06:07:01;;;;;;;6.75;4.18;;;;;;;13.12;76.08;101313.03;4972337;28;19914;-74
2022/05/06 06:09:27;;;;;;;8.35;4.13;;;;;;;13.27;76.47;101305.88;4969944;28;20105;-73
2022/05/06 06:11:53;;;;;;;6.28;3.47;;;;;;;13.49;76.65;101330.06;4971373;28;20062;-74
2022/05/06 06:14:19;;;;;;;7.55;3.95;;;;;;;13.58;76.45;101326.94;4972385;28;20567;-74
2022/05/06 06:16:44;;;;;;;8.02;3.80;;;;;;;13.53;77.37;101297.34;4972363;28;20027;-74
2022/05/06 06:19:10;;;;;;;9.63;3.03;;;;;;;13.82;73.22;101323.50;4982151;28;20050;-74
2022/05/06 06:21:36;;;;;;;10.55;3.35;;;;;;;13.83;76.76;101307.13;4991344;28;20054;-73
2022/05/06 06:24:01;;;;;;;7.72;4.63;;;;;;;13.98;78.63;101327.56;4991768;28;20100;-72
2022/05/06 06:26:27;;;;;;;8.77;4.00;;;;;;;13.82;75.16;101318.31;4991487;28;20481;-74
2022/05/06 06:28:52;;;;;;;5.53;3.30;;;;;;;13.73;74.90;101324.97;4991558;28;20034;-74
2022/05/06 06:31:18;;;;;;;5.40;3.85;;;;;;;13.86;76.77;101331.47;4991524;28;20022;-74
2022/05/06 06:33:43;;;;;;;5.55;3.45;;;;;;;13.83;76.89;101281.16;4991360;28;20535;-73
2022/05/06 06:36:09;;;;;;;6.55;3.42;;;;;;;14.21;76.22;101315.44;4991044;28;20042;-74
2022/05/06 06:38:35;;;;;;;5.97;3.67;;;;;;;14.35;73.19;101319.38;4991091;28;20088;-74
2022/05/06 06:41:01;;;;;;;8.52;3.58;;;;;;;14.14;74.24;101264.09;4991551;28;20034;-73
2022/05/06 06:43:26;;;;;;;4.82;2.90;;;;;;;14.35;73.74;101329.78;4991091;28;20416;-73
2022/05/06 06:45:52;;;;;;;6.65;2.90;;;;;;;14.21;69.99;101320.63;4990967;28;20026;-73
2022/05/06 06:48:17;;;;;;;5.72;2.80;;;;;;;14.15;69.17;101326.47;4991012;28;20109;-74
2022/05/06 06:50:43;;;;;;;6.43;2.97;;;;;;;14.19;71.67;101330.06;4990986;28;20030;-73
2022/05/06 06:53:08;;;;;;;5.95;2.53;;;;;;;14.36;69.90;101322.88;4990824;28;20038;-73
2022/05/06 06:55:34;;;;;;;7.47;2.72;;;;;;;14.37;68.24;101312.53;4989791;28;20031;-74
2022/05/06 06:58:00;;;;;;;5.55;2.80;;;;;;;14.21;66.27;101294.66;4991283;28;20026;-74
2022/05/06 07:00:26;;;;;;;6.45;2.83;;;;;;;14.43;67.70;101310.97;4991167;28;20034;-74
2022/05/06 07:02:53;;;;;;;5.40;2.40;;;;;;;14.40;68.48;101323.06;4991012;28;20091;-73
2022/05/06 07:05:19;;;;;;;7.25;3.42;;;;;;;14.61;67.70;101319.41;4990478;28;20057;-73
2022/05/06 07:13:12;;;;;;;9.77;3.15;;;;;;;14.76;67.60;101316.47;4990957;28;20069;-72
2022/05/06 07:15:37;;;;;;;5.03;2.35;;;;;;;14.77;66.68;101317.38;4990817;28;20120;-74
2022/05/06 07:18:03;;;;;;;6.63;2.78;;;;;;;14.97;67.72;101307.63;4990588;28;20128;-71
2022/05/06 07:20:28;;;;;;;9.68;3.33;;;;;;;15.20;66.05;101303.13;4990176;28;20058;-75
2022/05/06 07:22:54;;;;;;;5.38;2.65;;;;;;;15.37;67.01;101304.53;4990156;28;20556;-75
2022/05/06 07:25:19;;;;;;;6.95;3.00;;;;;;;15.47;65.49;101302.25;4990376;28;20027;-74
2022/05/06 07:27:45;;;;;;;6.30;3.00;;;;;;;15.76;64.81;101310.03;4991638;28;20437;-74
2022/05/06 07:30:11;;;;;;;5.65;2.70;;;;;;;15.63;67.83;101298.38;5000414;28;20026;-74
2022/05/06 07:32:39;;;;;;;9.85;3.25;;;;;;;15.92;64.29;101307.03;5000692;28;20113;-74
2022/05/06 07:35:05;;;;;;;7.53;3.55;;;;;;;16.12;63.73;101317.16;4999939;28;20524;-74
2022/05/06 07:37:33;;;;;;;6.88;2.80;;;;;;;16.20;64.28;101318.25;4998565;28;20484;-73
2022/05/06 07:40:05;;;;;;;6.47;2.88;;;;;;;16.48;62.38;101319.00;5001133;28;20510;-72
2022/05/06 07:42:31;;;;;;;5.65;3.13;;;;;;;16.54;62.98;101313.06;5000449;28;20026;-71
2022/05/06 07:45:00;;;;;;;4.50;2.60;;;;;;;16.57;62.00;101287.94;4999661;28;20034;-74
2022/05/06 07:47:26;;;;;;;5.78;2.88;;;;;;;16.50;62.41;101273.88;4996345;28;20026;-74
2022/05/06 07:49:52;;;;;;;4.28;2.65;;;;;;;16.63;64.05;101269.84;5000339;28;20030;-72
2022/05/06 07:52:18;;;;;;;5.32;2.67;;;;;;;16.82;62.08;101306.81;5000633;28;20169;-75
2022/05/06 07:54:43;;;;;;;6.72;3.00;;;;;;;16.97;62.84;101312.44;4999015;28;20134;-74
2022/05/06 07:57:09;;;;;;;8.55;3.40;;;;;;;17.11;57.35;101304.06;5000672;28;20153;-76
2022/05/06 07:59:34;;;;;;;6.82;2.72;;;;;;;17.20;56.50;101301.66;5000345;28;20479;-74
2022/05/06 08:04:48;;;;;;;5.60;2.80;;;;;;;17.22;56.76;101289.53;5002341;28;20025;-74
2022/05/06 08:07:14;;;;;;;6.90;2.35;;;;;;;17.21;58.52;101279.03;5003675;28;20031;-74
2022/05/06 08:09:40;;;;;;;5.25;2.70;;;;;;;17.40;58.87;101303.84;5002449;28;20136;-76
2022/05/06 08:12:06;;;;;;;8.60;2.50;;;;;;;17.59;59.11;101295.53;4999641;28;20186;-74
2022/05/06 08:14:32;;;;;;;7.38;2.92;;;;;;;17.75;56.81;101306.34;5003646;28;20393;-74
2022/05/06 08:16:59;;;;;;;7.20;2.70;;;;;;;17.77;56.41;101296.81;5003794;28;20078;-73
2022/05/06 08:19:25;;;;;;;5.75;2.55;;;;;;;17.68;56.45;101267.88;5001895;28;20575;-74
2022/05/06 08:21:51;;;;;;;5.55;2.80;;;;;;;17.92;59.18;101297.09;5003510;28;20037;-75
2022/05/06 08:24:17;;;;;;;8.68;2.78;;;;;;;17.97;58.70;101292.00;5000446;28;20035;-73
2022/05/06 08:26:43;;;;;;;4.45;2.58;;;;;;;18.08;56.39;101298.34;4993515;28;20029;-74
2022/05/06 08:29:09;;;;;;;7.38;2.72;;;;;;;18.03;58.13;101284.31;5000170;28;20054;-75
2022/05/06 08:31:37;;;;;;;7.68;2.55;;;;;;;18.19;54.33;101301.13;4999288;28;20023;-74
2022/05/06 08:34:11;;;;;;;9.50;4.90;;;;;;;18.36;52.45;101300.59;5003096;28;20036;-74
2022/05/06 08:36:38;;;;;;;6.53;3.17;;;;;;;18.40;52.15;101297.16;4999685;28;20399;-75
2022/05/06 08:39:05;;;;;;;9.07;3.28;;;;;;;18.38;53.92;101304.97;5002159;28;20033;-74
2022/05/06 08:41:30;;;;;;;6.32;2.70;;;;;;;18.31;51.56;101276.09;5000856;28;20038;-75
2022/05/06 08:43:57;;;;;;;4.40;2.72;;;;;;;18.21;51.34;101275.91;4989055;28;20031;-73
2022/05/06 08:51:58;;;;;;;6.90;2.60;;;;;;;18.58;55.09;101291.38;4975628;28;20182;-74
2022/05/06 08:54:24;;;;;;;6.30;2.60;;;;;;;18.50;52.14;101257.25;4992566;28;20184;-74
2022/05/06 08:56:50;;;;;;;4.25;2.53;;;;;;;18.75;53.23;101284.69;4990811;28;20121;-73
2022/05/06 08:59:16;;;;;;;5.72;2.55;;;;;;;18.69;53.63;101265.41;4975824;28;20469;-73
2022/05/06 09:01:44;;;;;;;6.65;3.85;;;;;;;18.73;50.19;101275.06;4992487;28;20072;-73
2022/05/06 09:04:10;;;;;;;7.25;3.50;;;;;;;18.90;50.36;101278.88;4992476;28;20428;-74
2022/05/06 09:06:35;;;;;;;12.10;4.90;;;;;;;19.02;49.26;101288.63;4992428;28;20092;-72
2022/05/06 09:09:01;;;;;;;8.30;3.63;;;;;;;19.15;49.44;101279.25;4992209;28;20109;-74
2022/05/06 09:16:39;;;;;;;6.97;2.60;;;;;;;19.03;51.46;101245.91;4991989;28;20118;-76
2022/05/06 09:17:19;;;;;;;6.53;2.30;;;;;;;19.21;52.19;101270.56;4992283;28;20619;-76
2022/05/06 09:19:45;;;;;;;6.50;2.20;;;;;;;19.34;50.28;101267.28;4992004;28;20528;-77
2022/05/06 09:22:17;;;;;;;7.40;2.67;;;;;;;19.34;48.67;101250.66;4992297;28;20058;-76
2022/05/06 09:24:44;;;;;;;5.38;2.65;;;;;;;19.51;48.80;101264.00;4994156;28;20041;-76
2022/05/06 09:27:12;;;;;;;7.78;2.88;;;;;;;19.56;50.33;101244.88;4974126;28;20030;-76
2022/05/06 09:29:41;;;;;;;4.78;2.65;;;;;;;19.47;50.50;101249.13;4992168;28;20034;-76
2022/05/06 09:32:18;;;;;;;4.78;2.25;;;;;;;19.29;48.52;101261.09;4991769;28;20049;-76
2022/05/06 09:34:46;;;;;;;6.25;2.92;;;;;;;18.88;46.83;101219.50;4990662;28;20417;-78
2022/05/06 09:37:30;;;;;;;5.40;2.70;;;;;;;19.34;49.02;101254.19;4992127;28;20076;-77
2022/05/06 09:40:06;;;;;;;9.88;3.13;;;;;;;19.44;50.03;101249.06;4989936;28;20032;-77
2022/05/06 09:42:33;;;;;;;7.90;3.20;;;;;;;19.45;49.74;101251.72;4991794;28;20022;-76
2022/05/06 09:44:59;;;;;;;9.00;3.08;;;;;;;19.61;48.39;101228.31;4991514;28;20054;-77
2022/05/06 09:47:25;;;;;;;8.48;2.78;;;;;;;19.70;46.92;101229.31;4969568;28;20101;-76
2022/05/06 09:49:52;;;;;;;9.10;2.55;;;;;;;19.59;46.38;101237.91;4969555;28;20050;-76
2022/05/06 09:52:17;;;;;;;5.80;2.70;;;;;;;19.75;45.17;101233.72;4969784;28;20448;-76
2022/05/06 09:54:45;;;;;;;13.57;3.58;;;;;;;19.91;43.85;101230.44;4970504;28;20034;-75
2022/05/06 09:57:20;;;;;;;10.73;2.85;;;;;;;20.07;44.51;101215.75;4970236;28;20026;-74
2022/05/06 09:59:50;;;;;;;8.90;2.97;;;;;;;20.18;43.95;101228.97;4970028;28;20048;-74
2022/05/06 10:02:17;;;;;;;9.18;2.53;;;;;;;20.24;43.64;101234.25;4968572;28;20062;-75
2022/05/06 10:04:43;;;;;;;7.18;2.88;;;;;;;20.56;43.25;101219.66;4963556;28;20280;-75
2022/05/06 10:07:25;;;;;;;9.77;3.15;;;;;;;20.81;40.92;101216.38;4968204;28;20492;-74
2022/05/06 10:10:01;;;;;;;12.68;3.17;;;;;;;20.97;44.44;101216.47;4968627;28;20032;-75
2022/05/06 10:12:30;;;;;;;5.90;2.55;;;;;;;21.14;43.07;101217.44;4965406;28;21160;-75
2022/05/06 10:14:57;;;;;;;11.88;4.07;;;;;;;21.32;41.88;101208.78;4969193;28;20078;-75
2022/05/06 10:18:01;;;;;;;12.00;3.65;;;;;;;21.25;37.94;101201.75;4951761;28;20125;-71
2022/05/06 10:20:41;;;;;;;10.25;3.50;;;;;;;21.40;39.32;101203.56;4969470;28;20055;-75
2022/05/06 10:23:08;;;;;;;9.23;3.15;;;;;;;21.57;42.37;101197.50;4968483;28;20023;-74
2022/05/06 10:25:42;;;;;;;10.13;2.95;;;;;;;21.68;39.96;101208.94;4987042;28;20412;-72
2022/05/06 10:34:16;;;;;;;12.77;4.05;;;;;;;21.53;40.68;101088.00;4990902;28;20117;-73
2022/05/06 10:36:43;;;;;;;14.38;3.67;;;;;;;22.30;38.39;101177.47;4973757;28;20033;-76
2022/05/06 10:39:25;;;;;;;13.98;3.70;;;;;;;22.35;37.60;101183.59;4987367;28;20042;-75
2022/05/06 10:42:01;;;;;;;8.73;2.65;;;;;;;22.31;35.20;101163.44;4989505;28;20034;-76
2022/05/06 10:44:38;;;;;;;6.15;2.58;;;;;;;22.34;34.02;101170.44;4990214;28;20401;-76
2022/05/06 10:47:41;;;;;;;5.90;2.47;;;;;;;22.09;36.56;101168.72;4989222;28;20026;-75
2022/05/06 10:50:24;;;;;;;5.70;2.28;;;;;;;22.04;38.14;101165.19;4991106;28;20029;-72
2022/05/06 10:52:50;;;;;;;10.80;2.60;;;;;;;21.86;39.38;101131.88;4989139;28;20038;-76
2022/05/06 10:55:18;;;;;;;8.38;2.60;;;;;;;22.18;38.59;101156.41;4989109;28;20038;-74
2022/05/06 10:58:13;;;;;;;4.75;1.85;;;;;;;22.07;38.67;101149.41;4990794;28;20022;-75
2022/05/06 11:00:40;;;;;;;5.40;2.22;;;;;;;21.41;37.98;101151.88;4929660;29;20039;-74
2022/05/06 11:03:06;;;;;;;3.33;2.10;;;;;;;21.36;41.36;101158.88;4930311;29;20110;-74
2022/05/06 11:05:32;;;;;;;5.00;2.53;;;;;;;21.12;38.29;101152.66;4929046;29;20130;-71
2022/05/06 11:08:00;;;;;;;6.10;2.33;;;;;;;21.33;36.85;101147.50;4925676;29;20067;-74
2022/05/06 11:10:28;;;;;;;4.32;2.05;;;;;;;21.30;39.12;101117.72;4925937;29;20052;-74
2022/05/06 11:12:58;;;;;;;7.40;2.55;;;;;;;21.83;40.97;101142.38;4911008;29;20036;-73
2022/05/06 11:15:30;;;;;;;8.32;2.60;;;;;;;22.20;37.13;101146.78;4930755;29;20118;-75
2022/05/06 11:18:01;;;;;;;5.47;2.40;;;;;;;21.98;37.24;101139.78;4927610;29;20465;-72
2022/05/06 11:20:31;;;;;;;8.02;2.45;;;;;;;22.24;36.44;101144.16;4929981;29;20043;-77
2022/05/06 11:23:11;;;;;;;9.07;3.22;;;;;;;22.45;36.94;101145.03;4951810;29;20493;-74
2022/05/06 11:25:44;;;;;;;11.00;2.85;;;;;;;22.66;34.19;101130.97;4946666;29;20023;-77
2022/05/06 11:28:21;;;;;;;6.47;2.63;;;;;;;22.91;35.73;101133.53;4922084;29;20036;-77
2022/05/06 11:30:49;;;;;;;5.28;2.55;;;;;;;22.85;35.55;101121.25;4911848;29;20040;-75
2022/05/06 11:33:25;;;;;;;6.82;2.80;;;;;;;23.09;37.48;101128.19;4910276;29;20024;-76
2022/05/06 11:36:02;;;;;;;4.32;2.55;;;;;;;23.18;34.46;101116.75;4910350;28;20028;-76
2022/05/06 11:38:42;;;;;;;5.97;2.47;;;;;;;23.02;37.29;101117.69;4968863;28;20034;-76
2022/05/06 11:41:10;;;;;;;3.72;2.20;;;;;;;23.25;38.30;101118.50;4973577;28;20031;-78
2022/05/06 11:43:36;;;;;;;6.75;2.40;;;;;;;23.19;35.84;101115.00;4974156;28;20098;-74
2022/05/06 11:48:47;;;;;;;8.45;2.45;;;;;;;23.01;35.59;101116.78;4973295;28;20034;-78
2022/05/06 11:51:22;;;;;;;8.13;2.55;;;;;;;23.02;34.63;101105.38;4980763;28;20154;-77
2022/05/06 11:53:49;;;;;;;12.85;2.55;;;;;;;23.08;35.72;101097.47;5007764;28;20046;-77
2022/05/06 11:56:21;;;;;;;4.53;2.40;;;;;;;23.37;37.00;101114.03;5013070;28;20087;-76
2022/05/06 11:58:48;;;;;;;6.07;2.65;;;;;;;23.50;37.33;101099.91;5012940;28;20033;-76
2022/05/06 12:01:24;;;;;;;8.75;3.65;;;;;;;23.50;34.40;101092.00;5007098;28;20122;-75
2022/05/06 12:03:50;;;;;;;8.63;3.08;;;;;;;23.43;34.95;101093.78;4979781;28;20073;-75
2022/05/06 12:06:15;;;;;;;5.22;2.50;;;;;;;23.13;36.10;101093.91;4983761;28;20062;-76
2022/05/06 12:08:40;;;;;;;5.40;2.70;;;;;;;22.76;37.82;101093.19;4976050;28;20026;-75
2022/05/06 12:11:07;;;;;;;6.43;2.67;;;;;;;22.74;37.14;101086.19;4988427;28;20026;-75
2022/05/06 12:13:36;;;;;;;8.52;2.67;;;;;;;22.48;38.76;101078.38;4983783;28;20066;-76